sensor_id;sensor_type;location;lat;lon;timestamp;temperature;humidity
2212;DHT22;48849;48.758;9.158;2024-02-21T00:01:49;13.60;99.90
2212;DHT22;48849;48.758;9.158;2024-02-21T00:06:43;10.40;99.90
2212;DHT22;48849;48.758;9.158;2024-02-21T00:09:11;10.40;99.90
2212;DHT22;48849;48.758;9.158;2024-02-21T00:14:06;10.30;99.90
2212;DHT22;48849;48.758;9.158;2024-02-21T00:16:33;10.30;99.90
2212;DHT22;48849;48.758;9.158;2024-02-21T00:19:01;10.30;99.90
2212;DHT22;48849;48.758;9.158;2024-02-21T00:33:46;10.20;99.90
2212;DHT22;48849;48.758;9.158;2024-02-21T00:36:16;10.20;99.90
2212;DHT22;48849;48.758;9.158;2024-02-21T00:43:37;10.30;99.90
2212;DHT22;48849;48.758;9.158;2024-02-21T00:46:05;10.20;99.90
2212;DHT22;48849;48.758;9.158;2024-02-21T00:48:33;10.30;99.90
2212;DHT22;48849;48.758;9.158;2024-02-21T00:53:30;10.20;99.90
2212;DHT22;48849;48.758;9.158;2024-02-21T01:10:42;10.40;99.90
2212;DHT22;48849;48.758;9.158;2024-02-21T01:13:10;10.40;99.90
2212;DHT22;48849;48.758;9.158;2024-02-21T01:18:04;10.30;99.90
2212;DHT22;48849;48.758;9.158;2024-02-21T01:22:59;10.30;99.90
2212;DHT22;48849;48.758;9.158;2024-02-21T01:25:26;10.20;99.90
2212;DHT22;48849;48.758;9.158;2024-02-21T01:27:54;10.30;99.90
2212;DHT22;48849;48.758;9.158;2024-02-21T01:30:20;10.30;99.90
2212;DHT22;48849;48.758;9.158;2024-02-21T01:35:15;10.30;99.90
2212;DHT22;48849;48.758;9.158;2024-02-21T01:37:42;10.30;99.90
2212;DHT22;48849;48.758;9.158;2024-02-21T01:40:10;10.20;99.90
2212;DHT22;48849;48.758;9.158;2024-02-21T01:42:38;10.30;99.90
2212;DHT22;48849;48.758;9.158;2024-02-21T01:45:08;10.20;99.90
2212;DHT22;48849;48.758;9.158;2024-02-21T01:47:35;10.30;99.90
2212;DHT22;48849;48.758;9.158;2024-02-21T01:50:04;10.30;99.90
2212;DHT22;48849;48.758;9.158;2024-02-21T01:54:58;10.30;99.90
2212;DHT22;48849;48.758;9.158;2024-02-21T01:57:26;10.20;99.90
2212;DHT22;48849;48.758;9.158;2024-02-21T01:59:54;10.30;99.90
2212;DHT22;48849;48.758;9.158;2024-02-21T02:02:23;10.40;99.90
2212;DHT22;48849;48.758;9.158;2024-02-21T02:04:50;10.30;99.90
2212;DHT22;48849;48.758;9.158;2024-02-21T02:14:39;10.30;99.90
2212;DHT22;48849;48.758;9.158;2024-02-21T02:17:06;10.30;99.90
2212;DHT22;48849;48.758;9.158;2024-02-21T02:19:36;10.40;99.90
2212;DHT22;48849;48.758;9.158;2024-02-21T02:22:08;10.40;99.90
2212;DHT22;48849;48.758;9.158;2024-02-21T02:24:37;10.30;99.90
2212;DHT22;48849;48.758;9.158;2024-02-21T02:27:04;10.40;99.90
2212;DHT22;48849;48.758;9.158;2024-02-21T02:29:32;10.40;99.90
2212;DHT22;48849;48.758;9.158;2024-02-21T02:39:21;10.50;99.90
2212;DHT22;48849;48.758;9.158;2024-02-21T02:41:49;10.50;99.90
2212;DHT22;48849;48.758;9.158;2024-02-21T02:44:16;10.50;99.90
2212;DHT22;48849;48.758;9.158;2024-02-21T02:46:43;10.50;99.90
2212;DHT22;48849;48.758;9.158;2024-02-21T02:51:41;10.50;99.90
2212;DHT22;48849;48.758;9.158;2024-02-21T02:54:08;10.50;99.90
2212;DHT22;48849;48.758;9.158;2024-02-21T02:59:03;11.30;99.90
2212;DHT22;48849;48.758;9.158;2024-02-21T03:01:33;10.40;99.90
2212;DHT22;48849;48.758;9.158;2024-02-21T03:08:55;10.50;99.90
2212;DHT22;48849;48.758;9.158;2024-02-21T03:11:22;10.40;99.90
2212;DHT22;48849;48.758;9.158;2024-02-21T03:13:54;10.40;99.90
2212;DHT22;48849;48.758;9.158;2024-02-21T03:16:22;10.50;99.90
2212;DHT22;48849;48.758;9.158;2024-02-21T03:18:49;10.50;99.90
2212;DHT22;48849;48.758;9.158;2024-02-21T03:21:16;10.40;99.90
2212;DHT22;48849;48.758;9.158;2024-02-21T03:23:42;10.50;99.90
2212;DHT22;48849;48.758;9.158;2024-02-21T03:28:36;10.40;99.90
2212;DHT22;48849;48.758;9.158;2024-02-21T03:31:05;10.40;99.90
2212;DHT22;48849;48.758;9.158;2024-02-21T03:33:33;10.40;99.90
2212;DHT22;48849;48.758;9.158;2024-02-21T03:36:00;10.30;99.90
2212;DHT22;48849;48.758;9.158;2024-02-21T03:38:27;10.20;99.90
2212;DHT22;48849;48.758;9.158;2024-02-21T03:40:54;10.30;99.90
2212;DHT22;48849;48.758;9.158;2024-02-21T03:43:20;10.30;99.90
2212;DHT22;48849;48.758;9.158;2024-02-21T03:45:48;10.20;99.90
2212;DHT22;48849;48.758;9.158;2024-02-21T03:48:15;10.20;99.90
2212;DHT22;48849;48.758;9.158;2024-02-21T03:50:43;10.20;99.90
2212;DHT22;48849;48.758;9.158;2024-02-21T03:53:10;10.20;99.90
2212;DHT22;48849;48.758;9.158;2024-02-21T03:55:37;10.20;99.90
2212;DHT22;48849;48.758;9.158;2024-02-21T03:58:03;10.20;99.90
2212;DHT22;48849;48.758;9.158;2024-02-21T04:00:30;10.10;99.90
2212;DHT22;48849;48.758;9.158;2024-02-21T04:02:57;10.10;99.90
2212;DHT22;48849;48.758;9.158;2024-02-21T04:05:24;10.10;99.90
2212;DHT22;48849;48.758;9.158;2024-02-21T04:07:53;10.10;99.90
2212;DHT22;48849;48.758;9.158;2024-02-21T04:10:20;10.10;99.90
2212;DHT22;48849;48.758;9.158;2024-02-21T04:12:46;10.10;99.90
2212;DHT22;48849;48.758;9.158;2024-02-21T04:15:15;10.10;99.90
2212;DHT22;48849;48.758;9.158;2024-02-21T04:20:15;10.10;99.90
2212;DHT22;48849;48.758;9.158;2024-02-21T04:22:43;10.10;99.90
2212;DHT22;48849;48.758;9.158;2024-02-21T04:25:11;10.10;99.90
2212;DHT22;48849;48.758;9.158;2024-02-21T04:27:39;10.10;99.90
2212;DHT22;48849;48.758;9.158;2024-02-21T04:30:06;10.10;99.90
2212;DHT22;48849;48.758;9.158;2024-02-21T04:32:33;10.10;99.90
2212;DHT22;48849;48.758;9.158;2024-02-21T04:35:00;10.10;99.90
2212;DHT22;48849;48.758;9.158;2024-02-21T04:42:23;10.00;99.90
2212;DHT22;48849;48.758;9.158;2024-02-21T04:44:49;10.00;99.90
2212;DHT22;48849;48.758;9.158;2024-02-21T04:47:16;10.00;99.90
2212;DHT22;48849;48.758;9.158;2024-02-21T04:49:44;10.00;99.90
2212;DHT22;48849;48.758;9.158;2024-02-21T04:52:11;10.00;99.90
2212;DHT22;48849;48.758;9.158;2024-02-21T05:02:01;9.90;99.90
2212;DHT22;48849;48.758;9.158;2024-02-21T05:04:28;9.90;99.90
2212;DHT22;48849;48.758;9.158;2024-02-21T05:06:55;9.80;99.90
2212;DHT22;48849;48.758;9.158;2024-02-21T05:09:22;9.70;99.90
2212;DHT22;48849;48.758;9.158;2024-02-21T05:11:48;9.80;99.90
2212;DHT22;48849;48.758;9.158;2024-02-21T05:14:15;9.80;99.90
2212;DHT22;48849;48.758;9.158;2024-02-21T05:16:43;9.80;99.90
2212;DHT22;48849;48.758;9.158;2024-02-21T05:21:37;9.60;99.90
2212;DHT22;48849;48.758;9.158;2024-02-21T05:24:04;9.60;99.90
2212;DHT22;48849;48.758;9.158;2024-02-21T05:26:31;9.60;99.90
2212;DHT22;48849;48.758;9.158;2024-02-21T05:31:25;9.60;99.90
2212;DHT22;48849;48.758;9.158;2024-02-21T05:33:53;9.60;99.90
2212;DHT22;48849;48.758;9.158;2024-02-21T05:36:20;9.60;99.90
2212;DHT22;48849;48.758;9.158;2024-02-21T05:41:14;9.60;99.90
2212;DHT22;48849;48.758;9.158;2024-02-21T05:43:42;9.70;99.90
2212;DHT22;48849;48.758;9.158;2024-02-21T05:48:35;9.70;99.90
2212;DHT22;48849;48.758;9.158;2024-02-21T05:51:04;9.70;99.90
2212;DHT22;48849;48.758;9.158;2024-02-21T05:53:31;9.70;99.90
2212;DHT22;48849;48.758;9.158;2024-02-21T05:55:58;9.70;99.90
2212;DHT22;48849;48.758;9.158;2024-02-21T05:58:24;9.60;99.90
2212;DHT22;48849;48.758;9.158;2024-02-21T06:03:19;9.60;99.90
2212;DHT22;48849;48.758;9.158;2024-02-21T06:05:46;9.60;99.90
2212;DHT22;48849;48.758;9.158;2024-02-21T06:08:14;9.60;99.90
2212;DHT22;48849;48.758;9.158;2024-02-21T06:10:41;9.60;99.90
2212;DHT22;48849;48.758;9.158;2024-02-21T06:13:08;9.60;99.90
2212;DHT22;48849;48.758;9.158;2024-02-21T06:15:35;9.50;99.90
2212;DHT22;48849;48.758;9.158;2024-02-21T06:18:01;9.50;99.90
2212;DHT22;48849;48.758;9.158;2024-02-21T06:22:55;9.50;99.90
2212;DHT22;48849;48.758;9.158;2024-02-21T06:25:23;9.50;99.90
2212;DHT22;48849;48.758;9.158;2024-02-21T06:27:50;9.40;99.90
2212;DHT22;48849;48.758;9.158;2024-02-21T06:30:17;9.30;99.90
2212;DHT22;48849;48.758;9.158;2024-02-21T06:32:44;9.40;99.90
2212;DHT22;48849;48.758;9.158;2024-02-21T06:37:40;9.50;99.90
2212;DHT22;48849;48.758;9.158;2024-02-21T06:40:07;9.50;99.90
2212;DHT22;48849;48.758;9.158;2024-02-21T06:42:36;9.40;99.90
2212;DHT22;48849;48.758;9.158;2024-02-21T06:45:04;9.40;99.90
2212;DHT22;48849;48.758;9.158;2024-02-21T06:47:32;9.30;99.90
2212;DHT22;48849;48.758;9.158;2024-02-21T06:49:59;9.30;99.90
2212;DHT22;48849;48.758;9.158;2024-02-21T06:52:26;9.30;99.90
2212;DHT22;48849;48.758;9.158;2024-02-21T06:54:52;9.40;99.90
2212;DHT22;48849;48.758;9.158;2024-02-21T06:59:47;9.30;99.90
2212;DHT22;48849;48.758;9.158;2024-02-21T07:02:14;9.30;99.90
2212;DHT22;48849;48.758;9.158;2024-02-21T07:04:41;9.40;99.90
2212;DHT22;48849;48.758;9.158;2024-02-21T07:07:09;9.40;99.90
2212;DHT22;48849;48.758;9.158;2024-02-21T07:12:04;9.40;99.90
2212;DHT22;48849;48.758;9.158;2024-02-21T07:14:32;9.50;99.90
2212;DHT22;48849;48.758;9.158;2024-02-21T07:17:00;9.50;99.90
2212;DHT22;48849;48.758;9.158;2024-02-21T07:21:54;9.50;99.90
2212;DHT22;48849;48.758;9.158;2024-02-21T07:24:22;9.60;99.90
2212;DHT22;48849;48.758;9.158;2024-02-21T07:26:49;9.60;99.90
2212;DHT22;48849;48.758;9.158;2024-02-21T07:29:17;9.70;99.90
2212;DHT22;48849;48.758;9.158;2024-02-21T07:34:15;9.80;99.90
2212;DHT22;48849;48.758;9.158;2024-02-21T07:39:10;9.90;99.90
2212;DHT22;48849;48.758;9.158;2024-02-21T07:41:37;9.90;99.90
2212;DHT22;48849;48.758;9.158;2024-02-21T07:44:05;9.90;99.90
2212;DHT22;48849;48.758;9.158;2024-02-21T07:46:31;10.00;99.90
2212;DHT22;48849;48.758;9.158;2024-02-21T07:49:00;10.00;99.90
2212;DHT22;48849;48.758;9.158;2024-02-21T07:51:29;10.10;99.90
2212;DHT22;48849;48.758;9.158;2024-02-21T07:53:56;10.10;99.90
2212;DHT22;48849;48.758;9.158;2024-02-21T07:56:23;10.20;99.90
2212;DHT22;48849;48.758;9.158;2024-02-21T08:01:21;10.20;99.90
2212;DHT22;48849;48.758;9.158;2024-02-21T08:06:14;10.30;99.90
2212;DHT22;48849;48.758;9.158;2024-02-21T08:11:11;10.40;99.90
2212;DHT22;48849;48.758;9.158;2024-02-21T08:13:38;10.40;99.90
2212;DHT22;48849;48.758;9.158;2024-02-21T08:16:06;10.50;99.90
2212;DHT22;48849;48.758;9.158;2024-02-21T08:18:33;10.50;99.90
2212;DHT22;48849;48.758;9.158;2024-02-21T08:23:29;10.50;99.90
2212;DHT22;48849;48.758;9.158;2024-02-21T08:25:57;10.50;99.90
2212;DHT22;48849;48.758;9.158;2024-02-21T08:28:23;10.60;99.90
2212;DHT22;48849;48.758;9.158;2024-02-21T08:30:51;12.80;99.90
2212;DHT22;48849;48.758;9.158;2024-02-21T08:33:18;10.70;99.90
2212;DHT22;48849;48.758;9.158;2024-02-21T08:35:50;10.70;99.90
2212;DHT22;48849;48.758;9.158;2024-02-21T08:38:17;10.70;99.90
2212;DHT22;48849;48.758;9.158;2024-02-21T08:43:14;13.80;99.90
2212;DHT22;48849;48.758;9.158;2024-02-21T08:45:41;13.80;99.90
2212;DHT22;48849;48.758;9.158;2024-02-21T08:48:08;12.60;99.90
2212;DHT22;48849;48.758;9.158;2024-02-21T08:50:36;12.80;99.90
2212;DHT22;48849;48.758;9.158;2024-02-21T08:53:03;10.80;99.90
2212;DHT22;48849;48.758;9.158;2024-02-21T08:55:32;13.50;99.90
2212;DHT22;48849;48.758;9.158;2024-02-21T08:58:01;10.90;99.90
2212;DHT22;48849;48.758;9.158;2024-02-21T09:00:33;11.10;99.90
2212;DHT22;48849;48.758;9.158;2024-02-21T09:03:01;11.00;99.90
2212;DHT22;48849;48.758;9.158;2024-02-21T09:05:28;11.00;99.90
2212;DHT22;48849;48.758;9.158;2024-02-21T09:07:57;13.40;99.90
2212;DHT22;48849;48.758;9.158;2024-02-21T09:10:24;12.60;99.90
2212;DHT22;48849;48.758;9.158;2024-02-21T09:12:52;11.20;99.90
2212;DHT22;48849;48.758;9.158;2024-02-21T09:18:25;9.10;99.90
2212;DHT22;48849;48.758;9.158;2024-02-21T09:20:52;11.60;99.90
2212;DHT22;48849;48.758;9.158;2024-02-21T09:50:11;10.20;99.90
2212;DHT22;48849;48.758;9.158;2024-02-21T10:07:39;11.50;99.90
2212;DHT22;48849;48.758;9.158;2024-02-21T10:10:10;11.50;99.90
2212;DHT22;48849;48.758;9.158;2024-02-21T10:12:55;11.50;99.90
2212;DHT22;48849;48.758;9.158;2024-02-21T10:15:31;11.60;99.90
2212;DHT22;48849;48.758;9.158;2024-02-21T10:18:00;10.90;99.90
2212;DHT22;48849;48.758;9.158;2024-02-21T10:20:29;11.80;99.90
2212;DHT22;48849;48.758;9.158;2024-02-21T10:23:05;11.70;99.90
2212;DHT22;48849;48.758;9.158;2024-02-21T10:25:35;11.80;99.90
2212;DHT22;48849;48.758;9.158;2024-02-21T11:01:47;10.80;99.90
2212;DHT22;48849;48.758;9.158;2024-02-21T11:18:44;12.40;99.90
2212;DHT22;48849;48.758;9.158;2024-02-21T11:21:12;12.40;99.90
2212;DHT22;48849;48.758;9.158;2024-02-21T11:23:40;12.40;99.90
2212;DHT22;48849;48.758;9.158;2024-02-21T11:26:07;11.40;99.90
2212;DHT22;48849;48.758;9.158;2024-02-21T11:28:34;12.50;99.90
2212;DHT22;48849;48.758;9.158;2024-02-21T11:31:11;13.70;99.90
2212;DHT22;48849;48.758;9.158;2024-02-21T11:33:40;14.00;99.90
2212;DHT22;48849;48.758;9.158;2024-02-21T11:36:09;12.50;99.90
2212;DHT22;48849;48.758;9.158;2024-02-21T11:38:36;14.60;99.90
2212;DHT22;48849;48.758;9.158;2024-02-21T11:41:08;12.70;99.90
2212;DHT22;48849;48.758;9.158;2024-02-21T11:43:35;14.10;99.90
2212;DHT22;48849;48.758;9.158;2024-02-21T11:46:03;10.50;99.90
2212;DHT22;48849;48.758;9.158;2024-02-21T11:48:32;12.80;99.90
2212;DHT22;48849;48.758;9.158;2024-02-21T11:50:59;12.70;99.90
2212;DHT22;48849;48.758;9.158;2024-02-21T11:53:30;12.80;99.90
2212;DHT22;48849;48.758;9.158;2024-02-21T11:55:58;12.80;99.90
2212;DHT22;48849;48.758;9.158;2024-02-21T11:58:25;12.80;99.90
2212;DHT22;48849;48.758;9.158;2024-02-21T12:00:52;12.80;99.90
2212;DHT22;48849;48.758;9.158;2024-02-21T12:03:19;12.90;99.90
2212;DHT22;48849;48.758;9.158;2024-02-21T12:05:47;15.40;99.90
2212;DHT22;48849;48.758;9.158;2024-02-21T12:08:14;14.10;99.90
2212;DHT22;48849;48.758;9.158;2024-02-21T12:10:44;12.80;99.90
2212;DHT22;48849;48.758;9.158;2024-02-21T12:13:16;14.50;99.90
2212;DHT22;48849;48.758;9.158;2024-02-21T12:15:47;12.90;99.90
2212;DHT22;48849;48.758;9.158;2024-02-21T12:18:15;12.80;99.90
2212;DHT22;48849;48.758;9.158;2024-02-21T12:20:42;12.90;99.90
2212;DHT22;48849;48.758;9.158;2024-02-21T12:23:20;14.10;99.90
2212;DHT22;48849;48.758;9.158;2024-02-21T12:25:51;12.90;99.90
2212;DHT22;48849;48.758;9.158;2024-02-21T12:28:19;12.90;99.90
2212;DHT22;48849;48.758;9.158;2024-02-21T12:30:47;12.90;99.90
2212;DHT22;48849;48.758;9.158;2024-02-21T12:33:14;13.00;99.90
2212;DHT22;48849;48.758;9.158;2024-02-21T12:35:41;14.60;99.90
2212;DHT22;48849;48.758;9.158;2024-02-21T12:38:09;13.10;99.90
2212;DHT22;48849;48.758;9.158;2024-02-21T12:40:37;13.00;99.90
2212;DHT22;48849;48.758;9.158;2024-02-21T12:43:06;13.10;99.90
2212;DHT22;48849;48.758;9.158;2024-02-21T12:45:33;13.10;99.90
2212;DHT22;48849;48.758;9.158;2024-02-21T12:48:01;13.10;99.90
2212;DHT22;48849;48.758;9.158;2024-02-21T12:50:35;13.20;99.90
2212;DHT22;48849;48.758;9.158;2024-02-21T12:53:03;13.30;99.90
2212;DHT22;48849;48.758;9.158;2024-02-21T12:55:30;13.10;99.90
2212;DHT22;48849;48.758;9.158;2024-02-21T12:57:57;13.20;99.90
2212;DHT22;48849;48.758;9.158;2024-02-21T13:00:32;13.10;99.90
2212;DHT22;48849;48.758;9.158;2024-02-21T13:03:01;13.20;99.90
2212;DHT22;48849;48.758;9.158;2024-02-21T13:05:29;13.20;99.90
2212;DHT22;48849;48.758;9.158;2024-02-21T13:07:57;13.20;99.90
2212;DHT22;48849;48.758;9.158;2024-02-21T13:10:25;13.20;99.90
2212;DHT22;48849;48.758;9.158;2024-02-21T13:12:52;13.30;99.90
2212;DHT22;48849;48.758;9.158;2024-02-21T13:15:25;15.30;99.90
2212;DHT22;48849;48.758;9.158;2024-02-21T13:17:55;13.20;99.90
2212;DHT22;48849;48.758;9.158;2024-02-21T13:20:22;15.90;99.90
2212;DHT22;48849;48.758;9.158;2024-02-21T13:22:49;14.60;99.90
2212;DHT22;48849;48.758;9.158;2024-02-21T13:25:19;13.30;99.90
2212;DHT22;48849;48.758;9.158;2024-02-21T13:31:14;14.40;99.90
2212;DHT22;48849;48.758;9.158;2024-02-21T13:33:52;13.30;99.90
2212;DHT22;48849;48.758;9.158;2024-02-21T13:36:20;14.20;99.90
2212;DHT22;48849;48.758;9.158;2024-02-21T13:59:29;13.40;99.90
2212;DHT22;48849;48.758;9.158;2024-02-21T14:02:14;13.40;99.90
2212;DHT22;48849;48.758;9.158;2024-02-21T14:04:41;13.30;99.90
2212;DHT22;48849;48.758;9.158;2024-02-21T14:07:09;10.80;99.90
2212;DHT22;48849;48.758;9.158;2024-02-21T14:09:42;13.40;99.90
2212;DHT22;48849;48.758;9.158;2024-02-21T14:17:24;13.30;99.90
2212;DHT22;48849;48.758;9.158;2024-02-21T14:19:51;13.30;99.90
2212;DHT22;48849;48.758;9.158;2024-02-21T14:22:18;13.20;99.90
2212;DHT22;48849;48.758;9.158;2024-02-21T14:24:45;13.20;99.90
2212;DHT22;48849;48.758;9.158;2024-02-21T14:27:12;13.30;99.90
2212;DHT22;48849;48.758;9.158;2024-02-21T14:29:39;13.30;99.90
2212;DHT22;48849;48.758;9.158;2024-02-21T14:32:07;13.20;99.90
2212;DHT22;48849;48.758;9.158;2024-02-21T14:34:37;13.20;99.90
2212;DHT22;48849;48.758;9.158;2024-02-21T14:37:04;13.10;99.90
2212;DHT22;48849;48.758;9.158;2024-02-21T14:39:31;13.20;99.90
2212;DHT22;48849;48.758;9.158;2024-02-21T14:42:00;15.80;99.90
2212;DHT22;48849;48.758;9.158;2024-02-21T14:44:28;14.50;99.90
2212;DHT22;48849;48.758;9.158;2024-02-21T14:46:55;14.40;99.90
2212;DHT22;48849;48.758;9.158;2024-02-21T14:49:22;14.70;99.90
2212;DHT22;48849;48.758;9.158;2024-02-21T14:51:52;13.20;99.90
2212;DHT22;48849;48.758;9.158;2024-02-21T14:54:19;13.20;99.90
2212;DHT22;48849;48.758;9.158;2024-02-21T14:56:47;13.20;99.90
2212;DHT22;48849;48.758;9.158;2024-02-21T14:59:15;13.20;99.90
2212;DHT22;48849;48.758;9.158;2024-02-21T15:01:43;14.40;99.90
2212;DHT22;48849;48.758;9.158;2024-02-21T15:04:10;13.20;99.90
2212;DHT22;48849;48.758;9.158;2024-02-21T15:06:37;12.10;99.90
2212;DHT22;48849;48.758;9.158;2024-02-21T15:09:06;14.70;99.90
2212;DHT22;48849;48.758;9.158;2024-02-21T15:11:32;15.00;99.90
2212;DHT22;48849;48.758;9.158;2024-02-21T15:13:59;13.10;99.90
2212;DHT22;48849;48.758;9.158;2024-02-21T15:16:27;13.10;99.90
2212;DHT22;48849;48.758;9.158;2024-02-21T15:18:55;13.10;99.90
2212;DHT22;48849;48.758;9.158;2024-02-21T15:21:22;13.10;99.90
2212;DHT22;48849;48.758;9.158;2024-02-21T15:23:49;15.20;99.90
2212;DHT22;48849;48.758;9.158;2024-02-21T15:26:18;13.10;99.90
2212;DHT22;48849;48.758;9.158;2024-02-21T15:28:45;13.10;99.90
2212;DHT22;48849;48.758;9.158;2024-02-21T15:31:20;14.60;99.90
2212;DHT22;48849;48.758;9.158;2024-02-21T15:33:48;14.50;99.90
2212;DHT22;48849;48.758;9.158;2024-02-21T15:36:15;14.90;99.90
2212;DHT22;48849;48.758;9.158;2024-02-21T15:38:42;13.80;99.90
2212;DHT22;48849;48.758;9.158;2024-02-21T15:47:44;13.60;99.90
2212;DHT22;48849;48.758;9.158;2024-02-21T15:51:21;12.90;99.90
2212;DHT22;48849;48.758;9.158;2024-02-21T15:54:21;15.10;99.90
2212;DHT22;48849;48.758;9.158;2024-02-21T15:57:06;11.20;99.90
2212;DHT22;48849;48.758;9.158;2024-02-21T16:09:50;14.60;99.90
2212;DHT22;48849;48.758;9.158;2024-02-21T16:12:37;14.60;99.90
2212;DHT22;48849;48.758;9.158;2024-02-21T16:15:11;13.30;99.90
2212;DHT22;48849;48.758;9.158;2024-02-21T16:17:41;13.60;99.90
2212;DHT22;48849;48.758;9.158;2024-02-21T16:20:13;12.90;99.90
2212;DHT22;48849;48.758;9.158;2024-02-21T16:22:41;12.90;99.90
2212;DHT22;48849;48.758;9.158;2024-02-21T16:25:10;13.00;99.90
2212;DHT22;48849;48.758;9.158;2024-02-21T16:27:37;12.90;99.90
2212;DHT22;48849;48.758;9.158;2024-02-21T16:30:07;13.30;99.90
2212;DHT22;48849;48.758;9.158;2024-02-21T16:32:34;12.90;99.90
2212;DHT22;48849;48.758;9.158;2024-02-21T16:35:04;13.30;99.90
2212;DHT22;48849;48.758;9.158;2024-02-21T16:37:31;12.90;99.90
2212;DHT22;48849;48.758;9.158;2024-02-21T16:39:58;13.40;99.90
2212;DHT22;48849;48.758;9.158;2024-02-21T16:42:27;12.90;99.90
2212;DHT22;48849;48.758;9.158;2024-02-21T16:44:55;15.40;99.90
2212;DHT22;48849;48.758;9.158;2024-02-21T16:47:22;12.80;99.90
2212;DHT22;48849;48.758;9.158;2024-02-21T16:49:50;14.40;99.90
2212;DHT22;48849;48.758;9.158;2024-02-21T16:52:17;14.60;99.90
2212;DHT22;48849;48.758;9.158;2024-02-21T16:54:44;13.40;99.90
2212;DHT22;48849;48.758;9.158;2024-02-21T16:57:11;12.80;99.90
2212;DHT22;48849;48.758;9.158;2024-02-21T16:59:40;12.80;99.90
2212;DHT22;48849;48.758;9.158;2024-02-21T17:05:05;14.70;99.90
2212;DHT22;48849;48.758;9.158;2024-02-21T17:07:35;12.70;99.90
2212;DHT22;48849;48.758;9.158;2024-02-21T17:10:03;14.80;99.90
2212;DHT22;48849;48.758;9.158;2024-02-21T17:12:31;12.70;99.90
2212;DHT22;48849;48.758;9.158;2024-02-21T17:15:00;12.70;99.90
2212;DHT22;48849;48.758;9.158;2024-02-21T17:17:27;12.70;99.90
2212;DHT22;48849;48.758;9.158;2024-02-21T17:19:54;12.40;99.90
2212;DHT22;48849;48.758;9.158;2024-02-21T17:22:21;12.70;99.90
2212;DHT22;48849;48.758;9.158;2024-02-21T17:24:48;12.70;99.90
2212;DHT22;48849;48.758;9.158;2024-02-21T17:27:15;12.70;99.90
2212;DHT22;48849;48.758;9.158;2024-02-21T17:29:43;12.60;99.90
2212;DHT22;48849;48.758;9.158;2024-02-21T17:32:12;12.60;99.90
2212;DHT22;48849;48.758;9.158;2024-02-21T17:34:40;12.70;99.90
2212;DHT22;48849;48.758;9.158;2024-02-21T17:37:07;12.70;99.90
2212;DHT22;48849;48.758;9.158;2024-02-21T17:39:34;12.70;99.90
2212;DHT22;48849;48.758;9.158;2024-02-21T17:42:01;12.70;99.90
2212;DHT22;48849;48.758;9.158;2024-02-21T17:44:29;13.30;99.90
2212;DHT22;48849;48.758;9.158;2024-02-21T17:46:56;12.80;99.90
2212;DHT22;48849;48.758;9.158;2024-02-21T17:49:38;14.20;99.90
2212;DHT22;48849;48.758;9.158;2024-02-21T17:52:08;12.70;99.90
2212;DHT22;48849;48.758;9.158;2024-02-21T17:54:35;12.70;99.90
2212;DHT22;48849;48.758;9.158;2024-02-21T17:57:16;12.70;99.90
2212;DHT22;48849;48.758;9.158;2024-02-21T17:59:57;15.00;99.90
2212;DHT22;48849;48.758;9.158;2024-02-21T18:02:25;13.80;99.90
2212;DHT22;48849;48.758;9.158;2024-02-21T18:04:54;12.70;99.90
2212;DHT22;48849;48.758;9.158;2024-02-21T18:07:24;12.70;99.90
2212;DHT22;48849;48.758;9.158;2024-02-21T18:13:17;11.10;99.90
2212;DHT22;48849;48.758;9.158;2024-02-21T18:15:44;14.70;99.90
2212;DHT22;48849;48.758;9.158;2024-02-21T18:18:12;13.80;99.90
2212;DHT22;48849;48.758;9.158;2024-02-21T18:21:04;12.60;99.90
2212;DHT22;48849;48.758;9.158;2024-02-21T18:23:37;11.70;99.90
2212;DHT22;48849;48.758;9.158;2024-02-21T18:26:05;12.70;99.90
2212;DHT22;48849;48.758;9.158;2024-02-21T18:28:38;12.60;99.90
2212;DHT22;48849;48.758;9.158;2024-02-21T18:31:11;12.60;99.90
2212;DHT22;48849;48.758;9.158;2024-02-21T18:33:40;10.70;99.90
2212;DHT22;48849;48.758;9.158;2024-02-21T18:36:13;12.60;99.90
2212;DHT22;48849;48.758;9.158;2024-02-21T18:38:42;11.50;99.90
2212;DHT22;48849;48.758;9.158;2024-02-21T18:41:09;12.50;99.90
2212;DHT22;48849;48.758;9.158;2024-02-21T18:43:39;14.10;99.90
2212;DHT22;48849;48.758;9.158;2024-02-21T18:46:08;11.10;99.90
2212;DHT22;48849;48.758;9.158;2024-02-21T18:49:03;12.80;99.90
2212;DHT22;48849;48.758;9.158;2024-02-21T18:52:04;12.80;99.90
2212;DHT22;48849;48.758;9.158;2024-02-21T18:54:52;12.20;99.90
2212;DHT22;48849;48.758;9.158;2024-02-21T18:57:34;12.80;99.90
2212;DHT22;48849;48.758;9.158;2024-02-21T19:00:17;14.70;99.90
2212;DHT22;48849;48.758;9.158;2024-02-21T19:02:54;12.70;99.90
2212;DHT22;48849;48.758;9.158;2024-02-21T19:05:25;10.40;99.90
2212;DHT22;48849;48.758;9.158;2024-02-21T19:08:09;12.20;99.90
2212;DHT22;48849;48.758;9.158;2024-02-21T19:10:54;14.10;99.90
2212;DHT22;48849;48.758;9.158;2024-02-21T19:13:52;11.30;99.90
2212;DHT22;48849;48.758;9.158;2024-02-21T19:16:44;12.80;99.90
2212;DHT22;48849;48.758;9.158;2024-02-21T19:19:46;12.70;99.90
2212;DHT22;48849;48.758;9.158;2024-02-21T19:22:31;10.90;99.90
2212;DHT22;48849;48.758;9.158;2024-02-21T19:25:00;13.90;99.90
2212;DHT22;48849;48.758;9.158;2024-02-21T19:34:23;11.40;99.90
2212;DHT22;48849;48.758;9.158;2024-02-21T19:36:53;12.50;99.90
2212;DHT22;48849;48.758;9.158;2024-02-21T19:39:23;14.00;99.90
2212;DHT22;48849;48.758;9.158;2024-02-21T19:45:13;13.10;99.90
2212;DHT22;48849;48.758;9.158;2024-02-21T19:47:43;12.50;99.90
2212;DHT22;48849;48.758;9.158;2024-02-21T19:50:29;15.20;99.90
2212;DHT22;48849;48.758;9.158;2024-02-21T19:52:59;13.00;99.90
2212;DHT22;48849;48.758;9.158;2024-02-21T19:55:28;12.60;99.90
2212;DHT22;48849;48.758;9.158;2024-02-21T19:57:56;13.10;99.90
2212;DHT22;48849;48.758;9.158;2024-02-21T20:00:25;12.50;99.90
2212;DHT22;48849;48.758;9.158;2024-02-21T20:02:53;12.50;99.90
2212;DHT22;48849;48.758;9.158;2024-02-21T20:05:20;12.60;99.90
2212;DHT22;48849;48.758;9.158;2024-02-21T20:07:47;12.50;99.90
2212;DHT22;48849;48.758;9.158;2024-02-21T20:10:15;12.50;99.90
2212;DHT22;48849;48.758;9.158;2024-02-21T20:12:44;12.50;99.90
2212;DHT22;48849;48.758;9.158;2024-02-21T20:15:11;12.60;99.90
2212;DHT22;48849;48.758;9.158;2024-02-21T20:17:41;14.00;99.90
2212;DHT22;48849;48.758;9.158;2024-02-21T20:20:11;12.50;99.90
2212;DHT22;48849;48.758;9.158;2024-02-21T20:22:37;14.10;99.90
2212;DHT22;48849;48.758;9.158;2024-02-21T20:25:05;12.60;99.90
2212;DHT22;48849;48.758;9.158;2024-02-21T20:27:32;12.50;99.90
2212;DHT22;48849;48.758;9.158;2024-02-21T20:30:00;12.50;99.90
2212;DHT22;48849;48.758;9.158;2024-02-21T20:32:28;12.50;99.90
2212;DHT22;48849;48.758;9.158;2024-02-21T20:34:58;12.50;99.90
2212;DHT22;48849;48.758;9.158;2024-02-21T20:37:44;12.40;99.90
2212;DHT22;48849;48.758;9.158;2024-02-21T20:40:17;12.50;99.90
2212;DHT22;48849;48.758;9.158;2024-02-21T20:42:45;12.50;99.90
2212;DHT22;48849;48.758;9.158;2024-02-21T20:45:12;12.50;99.90
2212;DHT22;48849;48.758;9.158;2024-02-21T20:47:39;12.50;99.90
2212;DHT22;48849;48.758;9.158;2024-02-21T20:50:08;15.60;99.90